sensor_id;sensor_type;location;lat;lon;timestamp;P1;durP1;ratioP1;P2;durP2;ratioP2
9413;SDS011;4746;35.664;139.738;2023-06-14T00:02:17;10.23;;;7.00;;
9413;SDS011;4746;35.664;139.738;2023-06-14T00:04:45;9.35;;;6.07;;
9413;SDS011;4746;35.664;139.738;2023-06-14T00:07:13;12.60;;;7.30;;
9413;SDS011;4746;35.664;139.738;2023-06-14T00:09:42;10.70;;;6.70;;
9413;SDS011;4746;35.664;139.738;2023-06-14T00:12:09;12.23;;;6.22;;
9413;SDS011;4746;35.664;139.738;2023-06-14T00:14:39;8.70;;;5.13;;
9413;SDS011;4746;35.664;139.738;2023-06-14T00:17:06;6.68;;;4.47;;
9413;SDS011;4746;35.664;139.738;2023-06-14T00:19:35;8.32;;;5.63;;
9413;SDS011;4746;35.664;139.738;2023-06-14T00:22:02;8.52;;;5.15;;
9413;SDS011;4746;35.664;139.738;2023-06-14T00:24:30;6.30;;;4.75;;
9413;SDS011;4746;35.664;139.738;2023-06-14T00:26:58;6.13;;;4.68;;
9413;SDS011;4746;35.664;139.738;2023-06-14T00:29:25;7.35;;;5.43;;
9413;SDS011;4746;35.664;139.738;2023-06-14T00:31:53;7.43;;;5.45;;
9413;SDS011;4746;35.664;139.738;2023-06-14T00:34:20;9.95;;;6.55;;
9413;SDS011;4746;35.664;139.738;2023-06-14T00:36:48;10.40;;;6.55;;
9413;SDS011;4746;35.664;139.738;2023-06-14T00:39:15;11.32;;;6.93;;
9413;SDS011;4746;35.664;139.738;2023-06-14T00:41:43;9.02;;;5.53;;
9413;SDS011;4746;35.664;139.738;2023-06-14T00:44:10;7.50;;;6.18;;
9413;SDS011;4746;35.664;139.738;2023-06-14T00:46:43;8.65;;;5.68;;
9413;SDS011;4746;35.664;139.738;2023-06-14T00:49:14;7.45;;;6.43;;
9413;SDS011;4746;35.664;139.738;2023-06-14T00:51:43;9.18;;;5.70;;
9413;SDS011;4746;35.664;139.738;2023-06-14T00:54:11;8.10;;;5.75;;
9413;SDS011;4746;35.664;139.738;2023-06-14T00:56:39;8.35;;;5.07;;
9413;SDS011;4746;35.664;139.738;2023-06-14T00:59:08;11.45;;;8.70;;
9413;SDS011;4746;35.664;139.738;2023-06-14T01:01:36;8.30;;;5.38;;
9413;SDS011;4746;35.664;139.738;2023-06-14T01:04:05;10.38;;;7.13;;
9413;SDS011;4746;35.664;139.738;2023-06-14T01:06:45;10.25;;;7.90;;
9413;SDS011;4746;35.664;139.738;2023-06-14T01:09:45;9.63;;;8.63;;
9413;SDS011;4746;35.664;139.738;2023-06-14T01:12:44;10.07;;;9.07;;
9413;SDS011;4746;35.664;139.738;2023-06-14T01:15:25;10.95;;;7.97;;
9413;SDS011;4746;35.664;139.738;2023-06-14T01:17:56;9.70;;;8.57;;
9413;SDS011;4746;35.664;139.738;2023-06-14T01:20:32;11.45;;;9.48;;
9413;SDS011;4746;35.664;139.738;2023-06-14T01:23:04;12.90;;;10.55;;
9413;SDS011;4746;35.664;139.738;2023-06-14T01:25:31;11.73;;;9.65;;
9413;SDS011;4746;35.664;139.738;2023-06-14T01:28:04;11.57;;;9.77;;
9413;SDS011;4746;35.664;139.738;2023-06-14T01:30:40;10.65;;;9.45;;
9413;SDS011;4746;35.664;139.738;2023-06-14T01:33:12;13.05;;;9.82;;
9413;SDS011;4746;35.664;139.738;2023-06-14T01:35:46;9.38;;;8.15;;
9413;SDS011;4746;35.664;139.738;2023-06-14T01:38:17;9.52;;;8.48;;
9413;SDS011;4746;35.664;139.738;2023-06-14T01:40:49;10.60;;;8.55;;
9413;SDS011;4746;35.664;139.738;2023-06-14T01:43:19;9.65;;;8.68;;
9413;SDS011;4746;35.664;139.738;2023-06-14T01:45:48;12.52;;;8.65;;
9413;SDS011;4746;35.664;139.738;2023-06-14T01:48:18;9.43;;;7.95;;
9413;SDS011;4746;35.664;139.738;2023-06-14T01:50:50;10.30;;;9.20;;
9413;SDS011;4746;35.664;139.738;2023-06-14T01:53:18;14.70;;;9.45;;
9413;SDS011;4746;35.664;139.738;2023-06-14T01:55:46;12.23;;;9.10;;
9413;SDS011;4746;35.664;139.738;2023-06-14T01:58:14;12.10;;;9.27;;
9413;SDS011;4746;35.664;139.738;2023-06-14T02:00:42;17.50;;;11.63;;
9413;SDS011;4746;35.664;139.738;2023-06-14T02:03:11;18.38;;;9.98;;
9413;SDS011;4746;35.664;139.738;2023-06-14T02:05:38;14.30;;;8.75;;
9413;SDS011;4746;35.664;139.738;2023-06-14T02:08:06;15.90;;;9.40;;
9413;SDS011;4746;35.664;139.738;2023-06-14T02:10:37;14.48;;;9.15;;
9413;SDS011;4746;35.664;139.738;2023-06-14T02:13:04;16.27;;;9.30;;
9413;SDS011;4746;35.664;139.738;2023-06-14T02:15:32;17.45;;;9.57;;
9413;SDS011;4746;35.664;139.738;2023-06-14T02:18:04;13.27;;;8.85;;
9413;SDS011;4746;35.664;139.738;2023-06-14T02:20:32;17.20;;;10.27;;
9413;SDS011;4746;35.664;139.738;2023-06-14T02:22:59;13.73;;;8.57;;
9413;SDS011;4746;35.664;139.738;2023-06-14T02:25:27;16.65;;;9.10;;
9413;SDS011;4746;35.664;139.738;2023-06-14T02:27:55;15.93;;;8.98;;
9413;SDS011;4746;35.664;139.738;2023-06-14T02:30:22;14.82;;;9.15;;
9413;SDS011;4746;35.664;139.738;2023-06-14T02:32:51;17.33;;;9.98;;
9413;SDS011;4746;35.664;139.738;2023-06-14T02:35:19;14.57;;;9.43;;
9413;SDS011;4746;35.664;139.738;2023-06-14T02:37:47;13.48;;;8.82;;
9413;SDS011;4746;35.664;139.738;2023-06-14T02:40:16;17.30;;;9.13;;
9413;SDS011;4746;35.664;139.738;2023-06-14T02:42:44;12.63;;;8.18;;
9413;SDS011;4746;35.664;139.738;2023-06-14T02:45:12;11.48;;;7.95;;
9413;SDS011;4746;35.664;139.738;2023-06-14T02:47:40;14.20;;;8.88;;
9413;SDS011;4746;35.664;139.738;2023-06-14T02:50:08;15.00;;;7.90;;
9413;SDS011;4746;35.664;139.738;2023-06-14T02:52:35;15.52;;;8.68;;
9413;SDS011;4746;35.664;139.738;2023-06-14T02:55:28;12.25;;;8.07;;
9413;SDS011;4746;35.664;139.738;2023-06-14T02:57:55;11.75;;;8.10;;
9413;SDS011;4746;35.664;139.738;2023-06-14T03:00:23;13.45;;;7.65;;
9413;SDS011;4746;35.664;139.738;2023-06-14T03:02:50;8.70;;;7.43;;
9413;SDS011;4746;35.664;139.738;2023-06-14T03:05:20;12.23;;;7.03;;
9413;SDS011;4746;35.664;139.738;2023-06-14T03:07:48;10.55;;;7.63;;
9413;SDS011;4746;35.664;139.738;2023-06-14T03:10:16;11.73;;;8.20;;
9413;SDS011;4746;35.664;139.738;2023-06-14T03:12:43;11.32;;;8.18;;
9413;SDS011;4746;35.664;139.738;2023-06-14T03:15:11;10.25;;;8.60;;
9413;SDS011;4746;35.664;139.738;2023-06-14T03:17:39;14.88;;;8.52;;
9413;SDS011;4746;35.664;139.738;2023-06-14T03:20:10;11.02;;;9.07;;
9413;SDS011;4746;35.664;139.738;2023-06-14T03:22:38;10.10;;;8.32;;
9413;SDS011;4746;35.664;139.738;2023-06-14T03:25:06;10.57;;;8.38;;
9413;SDS011;4746;35.664;139.738;2023-06-14T03:27:35;11.95;;;8.75;;
9413;SDS011;4746;35.664;139.738;2023-06-14T03:30:03;9.80;;;8.18;;
9413;SDS011;4746;35.664;139.738;2023-06-14T03:32:32;10.43;;;7.97;;
9413;SDS011;4746;35.664;139.738;2023-06-14T03:35:02;9.98;;;7.18;;
9413;SDS011;4746;35.664;139.738;2023-06-14T03:37:32;11.48;;;6.93;;
9413;SDS011;4746;35.664;139.738;2023-06-14T03:40:01;8.68;;;6.65;;
9413;SDS011;4746;35.664;139.738;2023-06-14T03:42:31;9.18;;;6.22;;
9413;SDS011;4746;35.664;139.738;2023-06-14T03:44:59;9.00;;;6.78;;
9413;SDS011;4746;35.664;139.738;2023-06-14T03:47:27;9.35;;;6.60;;
9413;SDS011;4746;35.664;139.738;2023-06-14T03:49:55;7.10;;;6.40;;
9413;SDS011;4746;35.664;139.738;2023-06-14T03:52:22;6.88;;;6.03;;
9413;SDS011;4746;35.664;139.738;2023-06-14T03:54:50;5.80;;;5.30;;
9413;SDS011;4746;35.664;139.738;2023-06-14T03:57:18;9.38;;;5.97;;
9413;SDS011;4746;35.664;139.738;2023-06-14T03:59:47;5.72;;;5.22;;
9413;SDS011;4746;35.664;139.738;2023-06-14T04:02:15;7.00;;;5.53;;
9413;SDS011;4746;35.664;139.738;2023-06-14T04:04:43;6.80;;;5.75;;
9413;SDS011;4746;35.664;139.738;2023-06-14T04:07:17;6.15;;;4.43;;
9413;SDS011;4746;35.664;139.738;2023-06-14T04:09:45;5.78;;;4.43;;
9413;SDS011;4746;35.664;139.738;2023-06-14T04:12:13;6.95;;;4.45;;
9413;SDS011;4746;35.664;139.738;2023-06-14T04:14:40;3.88;;;3.38;;
9413;SDS011;4746;35.664;139.738;2023-06-14T04:17:08;5.97;;;3.70;;
9413;SDS011;4746;35.664;139.738;2023-06-14T04:19:36;3.35;;;3.00;;
9413;SDS011;4746;35.664;139.738;2023-06-14T04:22:05;4.28;;;3.40;;
9413;SDS011;4746;35.664;139.738;2023-06-14T04:24:36;4.10;;;3.53;;
9413;SDS011;4746;35.664;139.738;2023-06-14T04:27:03;6.22;;;5.10;;
9413;SDS011;4746;35.664;139.738;2023-06-14T04:29:32;5.75;;;5.10;;
9413;SDS011;4746;35.664;139.738;2023-06-14T04:31:59;3.63;;;3.20;;
9413;SDS011;4746;35.664;139.738;2023-06-14T04:34:27;4.90;;;4.38;;
9413;SDS011;4746;35.664;139.738;2023-06-14T04:36:59;3.17;;;2.83;;
9413;SDS011;4746;35.664;139.738;2023-06-14T04:39:27;3.83;;;3.47;;
9413;SDS011;4746;35.664;139.738;2023-06-14T04:41:54;3.63;;;3.20;;
9413;SDS011;4746;35.664;139.738;2023-06-14T04:44:25;3.47;;;2.90;;
9413;SDS011;4746;35.664;139.738;2023-06-14T04:46:56;4.47;;;3.20;;
9413;SDS011;4746;35.664;139.738;2023-06-14T04:49:24;4.03;;;3.00;;
9413;SDS011;4746;35.664;139.738;2023-06-14T04:51:52;5.45;;;3.30;;
9413;SDS011;4746;35.664;139.738;2023-06-14T04:54:29;3.45;;;3.15;;
9413;SDS011;4746;35.664;139.738;2023-06-14T04:56:58;5.25;;;3.83;;
9413;SDS011;4746;35.664;139.738;2023-06-14T04:59:26;6.47;;;3.97;;
9413;SDS011;4746;35.664;139.738;2023-06-14T05:01:58;9.30;;;4.50;;
9413;SDS011;4746;35.664;139.738;2023-06-14T05:04:26;5.22;;;3.65;;
9413;SDS011;4746;35.664;139.738;2023-06-14T05:06:54;5.50;;;3.70;;
9413;SDS011;4746;35.664;139.738;2023-06-14T05:09:22;6.68;;;4.40;;
9413;SDS011;4746;35.664;139.738;2023-06-14T05:11:49;6.63;;;4.18;;
9413;SDS011;4746;35.664;139.738;2023-06-14T05:14:17;6.88;;;4.05;;
9413;SDS011;4746;35.664;139.738;2023-06-14T05:16:45;4.75;;;3.55;;
9413;SDS011;4746;35.664;139.738;2023-06-14T05:19:14;4.63;;;3.70;;
9413;SDS011;4746;35.664;139.738;2023-06-14T05:21:43;6.63;;;3.65;;
9413;SDS011;4746;35.664;139.738;2023-06-14T05:24:11;5.10;;;4.38;;
9413;SDS011;4746;35.664;139.738;2023-06-14T05:26:39;4.80;;;4.05;;
9413;SDS011;4746;35.664;139.738;2023-06-14T05:29:06;3.65;;;3.28;;
9413;SDS011;4746;35.664;139.738;2023-06-14T05:31:34;7.40;;;4.13;;
9413;SDS011;4746;35.664;139.738;2023-06-14T05:34:01;4.57;;;3.60;;
9413;SDS011;4746;35.664;139.738;2023-06-14T05:36:29;7.30;;;3.80;;
9413;SDS011;4746;35.664;139.738;2023-06-14T05:38:57;4.93;;;3.58;;
9413;SDS011;4746;35.664;139.738;2023-06-14T05:41:25;5.45;;;3.88;;
9413;SDS011;4746;35.664;139.738;2023-06-14T05:43:54;6.80;;;4.32;;
9413;SDS011;4746;35.664;139.738;2023-06-14T05:46:22;5.78;;;3.55;;
9413;SDS011;4746;35.664;139.738;2023-06-14T05:48:51;4.63;;;3.92;;
9413;SDS011;4746;35.664;139.738;2023-06-14T05:51:19;7.85;;;4.75;;
9413;SDS011;4746;35.664;139.738;2023-06-14T05:53:47;8.85;;;4.07;;
9413;SDS011;4746;35.664;139.738;2023-06-14T05:56:15;5.72;;;3.35;;
9413;SDS011;4746;35.664;139.738;2023-06-14T05:58:44;4.75;;;3.45;;
9413;SDS011;4746;35.664;139.738;2023-06-14T06:01:12;5.85;;;3.75;;
9413;SDS011;4746;35.664;139.738;2023-06-14T06:03:41;5.95;;;3.35;;
9413;SDS011;4746;35.664;139.738;2023-06-14T06:06:12;3.45;;;3.15;;
9413;SDS011;4746;35.664;139.738;2023-06-14T06:08:41;5.60;;;3.80;;
9413;SDS011;4746;35.664;139.738;2023-06-14T06:11:09;4.53;;;3.45;;
9413;SDS011;4746;35.664;139.738;2023-06-14T06:13:36;7.35;;;4.00;;
9413;SDS011;4746;35.664;139.738;2023-06-14T06:16:04;3.80;;;3.35;;
9413;SDS011;4746;35.664;139.738;2023-06-14T06:18:32;4.93;;;3.80;;
9413;SDS011;4746;35.664;139.738;2023-06-14T06:21:00;9.07;;;5.00;;
9413;SDS011;4746;35.664;139.738;2023-06-14T06:23:29;5.20;;;4.80;;
9413;SDS011;4746;35.664;139.738;2023-06-14T06:25:57;7.97;;;4.78;;
9413;SDS011;4746;35.664;139.738;2023-06-14T06:28:24;7.43;;;4.20;;
9413;SDS011;4746;35.664;139.738;2023-06-14T06:30:52;4.53;;;4.07;;
9413;SDS011;4746;35.664;139.738;2023-06-14T06:33:20;7.85;;;4.10;;
9413;SDS011;4746;35.664;139.738;2023-06-14T06:35:47;5.68;;;3.75;;
9413;SDS011;4746;35.664;139.738;2023-06-14T06:38:15;4.03;;;3.67;;
9413;SDS011;4746;35.664;139.738;2023-06-14T06:40:44;4.13;;;3.72;;
9413;SDS011;4746;35.664;139.738;2023-06-14T06:43:11;4.75;;;3.75;;
9413;SDS011;4746;35.664;139.738;2023-06-14T06:45:42;4.72;;;3.80;;
9413;SDS011;4746;35.664;139.738;2023-06-14T06:48:10;6.43;;;4.53;;
9413;SDS011;4746;35.664;139.738;2023-06-14T06:50:37;6.38;;;4.35;;
9413;SDS011;4746;35.664;139.738;2023-06-14T06:53:05;5.35;;;3.60;;
9413;SDS011;4746;35.664;139.738;2023-06-14T06:55:34;6.85;;;3.90;;
9413;SDS011;4746;35.664;139.738;2023-06-14T06:58:02;3.80;;;3.25;;
9413;SDS011;4746;35.664;139.738;2023-06-14T07:00:30;3.28;;;2.97;;
9413;SDS011;4746;35.664;139.738;2023-06-14T07:02:58;4.97;;;4.03;;
9413;SDS011;4746;35.664;139.738;2023-06-14T07:05:26;4.97;;;3.42;;
9413;SDS011;4746;35.664;139.738;2023-06-14T07:07:54;4.00;;;3.55;;
9413;SDS011;4746;35.664;139.738;2023-06-14T07:10:22;7.40;;;3.30;;
9413;SDS011;4746;35.664;139.738;2023-06-14T07:12:51;3.95;;;3.60;;
9413;SDS011;4746;35.664;139.738;2023-06-14T07:15:19;6.68;;;3.90;;
9413;SDS011;4746;35.664;139.738;2023-06-14T07:17:46;5.97;;;3.83;;
9413;SDS011;4746;35.664;139.738;2023-06-14T07:20:14;5.10;;;3.33;;
9413;SDS011;4746;35.664;139.738;2023-06-14T07:22:42;2.85;;;2.65;;
9413;SDS011;4746;35.664;139.738;2023-06-14T07:25:10;2.92;;;2.72;;
9413;SDS011;4746;35.664;139.738;2023-06-14T07:27:40;3.22;;;2.80;;
9413;SDS011;4746;35.664;139.738;2023-06-14T07:30:09;4.28;;;3.28;;
9413;SDS011;4746;35.664;139.738;2023-06-14T07:32:37;4.57;;;3.05;;
9413;SDS011;4746;35.664;139.738;2023-06-14T07:35:05;7.10;;;3.38;;
9413;SDS011;4746;35.664;139.738;2023-06-14T07:37:33;3.35;;;3.05;;
9413;SDS011;4746;35.664;139.738;2023-06-14T07:40:01;3.45;;;3.15;;
9413;SDS011;4746;35.664;139.738;2023-06-14T07:42:35;4.18;;;3.20;;
9413;SDS011;4746;35.664;139.738;2023-06-14T07:45:03;3.83;;;3.10;;
9413;SDS011;4746;35.664;139.738;2023-06-14T07:47:36;3.60;;;2.97;;
9413;SDS011;4746;35.664;139.738;2023-06-14T07:50:04;4.75;;;3.33;;
9413;SDS011;4746;35.664;139.738;2023-06-14T07:52:32;3.40;;;3.10;;
9413;SDS011;4746;35.664;139.738;2023-06-14T07:55:00;3.30;;;3.03;;
9413;SDS011;4746;35.664;139.738;2023-06-14T07:57:27;5.38;;;3.58;;
9413;SDS011;4746;35.664;139.738;2023-06-14T07:59:55;3.90;;;3.53;;
9413;SDS011;4746;35.664;139.738;2023-06-14T08:02:22;3.40;;;3.03;;
9413;SDS011;4746;35.664;139.738;2023-06-14T08:04:51;4.53;;;3.00;;
9413;SDS011;4746;35.664;139.738;2023-06-14T08:07:19;3.50;;;3.05;;
9413;SDS011;4746;35.664;139.738;2023-06-14T08:09:47;4.53;;;3.22;;
9413;SDS011;4746;35.664;139.738;2023-06-14T08:12:15;6.20;;;3.20;;
9413;SDS011;4746;35.664;139.738;2023-06-14T08:14:42;4.30;;;3.17;;
9413;SDS011;4746;35.664;139.738;2023-06-14T08:17:10;4.05;;;3.10;;
9413;SDS011;4746;35.664;139.738;2023-06-14T08:19:37;3.47;;;2.75;;
9413;SDS011;4746;35.664;139.738;2023-06-14T08:22:06;3.78;;;2.80;;
9413;SDS011;4746;35.664;139.738;2023-06-14T08:24:37;3.15;;;2.63;;
9413;SDS011;4746;35.664;139.738;2023-06-14T08:27:07;5.20;;;3.28;;
9413;SDS011;4746;35.664;139.738;2023-06-14T08:29:35;3.85;;;3.30;;
9413;SDS011;4746;35.664;139.738;2023-06-14T08:32:05;4.30;;;2.92;;
9413;SDS011;4746;35.664;139.738;2023-06-14T08:34:33;3.47;;;2.90;;
9413;SDS011;4746;35.664;139.738;2023-06-14T08:37:01;3.22;;;2.88;;
9413;SDS011;4746;35.664;139.738;2023-06-14T08:39:28;3.88;;;2.90;;
9413;SDS011;4746;35.664;139.738;2023-06-14T08:41:56;5.47;;;3.22;;
9413;SDS011;4746;35.664;139.738;2023-06-14T08:44:24;4.20;;;2.80;;
9413;SDS011;4746;35.664;139.738;2023-06-14T08:46:51;3.38;;;2.97;;
9413;SDS011;4746;35.664;139.738;2023-06-14T08:49:24;4.85;;;3.38;;
9413;SDS011;4746;35.664;139.738;2023-06-14T08:51:57;4.50;;;3.05;;
9413;SDS011;4746;35.664;139.738;2023-06-14T08:54:27;3.90;;;2.88;;
9413;SDS011;4746;35.664;139.738;2023-06-14T08:56:59;3.35;;;3.05;;
9413;SDS011;4746;35.664;139.738;2023-06-14T08:59:29;3.20;;;2.90;;
9413;SDS011;4746;35.664;139.738;2023-06-14T09:02:05;3.33;;;2.85;;
9413;SDS011;4746;35.664;139.738;2023-06-14T09:04:32;3.72;;;3.42;;
9413;SDS011;4746;35.664;139.738;2023-06-14T09:07:02;4.75;;;3.00;;
9413;SDS011;4746;35.664;139.738;2023-06-14T09:09:32;3.75;;;3.40;;
9413;SDS011;4746;35.664;139.738;2023-06-14T09:12:04;4.80;;;3.50;;
9413;SDS011;4746;35.664;139.738;2023-06-14T09:14:38;3.65;;;3.33;;
9413;SDS011;4746;35.664;139.738;2023-06-14T09:17:08;3.83;;;3.38;;
9413;SDS011;4746;35.664;139.738;2023-06-14T09:19:41;4.03;;;3.20;;
9413;SDS011;4746;35.664;139.738;2023-06-14T09:22:16;3.28;;;3.00;;
9413;SDS011;4746;35.664;139.738;2023-06-14T09:24:44;3.55;;;3.08;;
9413;SDS011;4746;35.664;139.738;2023-06-14T09:27:14;4.70;;;3.55;;
9413;SDS011;4746;35.664;139.738;2023-06-14T09:29:42;4.55;;;2.97;;
9413;SDS011;4746;35.664;139.738;2023-06-14T09:32:10;3.40;;;2.55;;
9413;SDS011;4746;35.664;139.738;2023-06-14T09:34:37;2.80;;;2.40;;
9413;SDS011;4746;35.664;139.738;2023-06-14T09:37:05;2.33;;;2.20;;
9413;SDS011;4746;35.664;139.738;2023-06-14T09:39:32;4.55;;;2.35;;
9413;SDS011;4746;35.664;139.738;2023-06-14T09:42:00;2.65;;;2.10;;
9413;SDS011;4746;35.664;139.738;2023-06-14T09:44:43;1.90;;;1.80;;
9413;SDS011;4746;35.664;139.738;2023-06-14T09:47:16;2.33;;;2.13;;
9413;SDS011;4746;35.664;139.738;2023-06-14T09:49:43;3.42;;;2.20;;
9413;SDS011;4746;35.664;139.738;2023-06-14T09:52:20;2.17;;;1.98;;
9413;SDS011;4746;35.664;139.738;2023-06-14T09:54:49;2.28;;;2.17;;
9413;SDS011;4746;35.664;139.738;2023-06-14T09:57:21;2.15;;;2.05;;
9413;SDS011;4746;35.664;139.738;2023-06-14T09:59:56;2.22;;;2.13;;
9413;SDS011;4746;35.664;139.738;2023-06-14T10:02:36;2.72;;;2.53;;
9413;SDS011;4746;35.664;139.738;2023-06-14T10:05:13;2.22;;;2.13;;
9413;SDS011;4746;35.664;139.738;2023-06-14T10:08:05;3.42;;;2.80;;
9413;SDS011;4746;35.664;139.738;2023-06-14T10:10:38;3.05;;;2.13;;
9413;SDS011;4746;35.664;139.738;2023-06-14T10:13:06;3.85;;;3.50;;
9413;SDS011;4746;35.664;139.738;2023-06-14T10:15:37;2.63;;;2.42;;
9413;SDS011;4746;35.664;139.738;2023-06-14T10:19:03;2.53;;;2.30;;
9413;SDS011;4746;35.664;139.738;2023-06-14T10:22:04;2.28;;;2.03;;
9413;SDS011;4746;35.664;139.738;2023-06-14T10:24:43;3.10;;;2.17;;
9413;SDS011;4746;35.664;139.738;2023-06-14T10:27:13;2.08;;;1.98;;
9413;SDS011;4746;35.664;139.738;2023-06-14T10:32:22;2.65;;;2.45;;
9413;SDS011;4746;35.664;139.738;2023-06-14T10:34:53;2.85;;;2.00;;
9413;SDS011;4746;35.664;139.738;2023-06-14T10:37:32;2.22;;;2.00;;
9413;SDS011;4746;35.664;139.738;2023-06-14T10:40:01;2.15;;;1.95;;
9413;SDS011;4746;35.664;139.738;2023-06-14T10:42:31;3.35;;;1.95;;
9413;SDS011;4746;35.664;139.738;2023-06-14T10:45:00;2.00;;;1.60;;
9413;SDS011;4746;35.664;139.738;2023-06-14T10:47:34;1.70;;;1.50;;
9413;SDS011;4746;35.664;139.738;2023-06-14T10:50:06;2.35;;;1.85;;
9413;SDS011;4746;35.664;139.738;2023-06-14T10:52:40;1.67;;;1.58;;
9413;SDS011;4746;35.664;139.738;2023-06-14T10:55:19;2.03;;;1.90;;
9413;SDS011;4746;35.664;139.738;2023-06-14T10:57:51;2.80;;;2.17;;
9413;SDS011;4746;35.664;139.738;2023-06-14T11:00:30;2.22;;;2.03;;
9413;SDS011;4746;35.664;139.738;2023-06-14T11:11:12;2.00;;;1.90;;
9413;SDS011;4746;35.664;139.738;2023-06-14T11:13:41;1.92;;;1.80;;
9413;SDS011;4746;35.664;139.738;2023-06-14T11:16:15;1.98;;;1.88;;
9413;SDS011;4746;35.664;139.738;2023-06-14T11:18:47;2.13;;;1.98;;
9413;SDS011;4746;35.664;139.738;2023-06-14T11:21:18;2.30;;;2.10;;
9413;SDS011;4746;35.664;139.738;2023-06-14T11:23:52;1.95;;;1.85;;
9413;SDS011;4746;35.664;139.738;2023-06-14T11:26:28;2.60;;;2.33;;
9413;SDS011;4746;35.664;139.738;2023-06-14T11:29:00;2.83;;;2.63;;
9413;SDS011;4746;35.664;139.738;2023-06-14T11:31:28;2.95;;;2.75;;
9413;SDS011;4746;35.664;139.738;2023-06-14T11:33:56;2.75;;;2.20;;
9413;SDS011;4746;35.664;139.738;2023-06-14T11:36:26;2.83;;;2.63;;
9413;SDS011;4746;35.664;139.738;2023-06-14T11:39:03;2.58;;;2.38;;
9413;SDS011;4746;35.664;139.738;2023-06-14T11:41:40;2.13;;;1.98;;
9413;SDS011;4746;35.664;139.738;2023-06-14T11:44:10;1.95;;;1.83;;
9413;SDS011;4746;35.664;139.738;2023-06-14T11:46:38;1.83;;;1.73;;
9413;SDS011;4746;35.664;139.738;2023-06-14T11:49:06;2.28;;;2.17;;
9413;SDS011;4746;35.664;139.738;2023-06-14T11:51:37;3.60;;;2.83;;
9413;SDS011;4746;35.664;139.738;2023-06-14T11:54:06;2.97;;;2.78;;
9413;SDS011;4746;35.664;139.738;2023-06-14T11:56:34;3.20;;;2.80;;
9413;SDS011;4746;35.664;139.738;2023-06-14T11:59:03;3.42;;;2.70;;
9413;SDS011;4746;35.664;139.738;2023-06-14T12:01:35;3.58;;;2.97;;
9413;SDS011;4746;35.664;139.738;2023-06-14T12:04:07;3.33;;;3.03;;
9413;SDS011;4746;35.664;139.738;2023-06-14T12:06:34;3.40;;;3.20;;
9413;SDS011;4746;35.664;139.738;2023-06-14T12:09:05;3.90;;;3.50;;
9413;SDS011;4746;35.664;139.738;2023-06-14T12:11:38;3.13;;;2.90;;
9413;SDS011;4746;35.664;139.738;2023-06-14T12:14:07;2.85;;;2.65;;
9413;SDS011;4746;35.664;139.738;2023-06-14T12:16:37;3.10;;;2.90;;
9413;SDS011;4746;35.664;139.738;2023-06-14T12:19:13;4.30;;;3.50;;
9413;SDS011;4746;35.664;139.738;2023-06-14T12:21:43;3.92;;;3.05;;
9413;SDS011;4746;35.664;139.738;2023-06-14T12:24:17;3.40;;;3.20;;
9413;SDS011;4746;35.664;139.738;2023-06-14T12:26:45;3.28;;;2.97;;
9413;SDS011;4746;35.664;139.738;2023-06-14T12:29:12;4.03;;;3.03;;
9413;SDS011;4746;35.664;139.738;2023-06-14T12:31:40;4.13;;;3.20;;
9413;SDS011;4746;35.664;139.738;2023-06-14T12:34:08;3.58;;;3.22;;
9413;SDS011;4746;35.664;139.738;2023-06-14T12:36:36;3.72;;;3.38;;
9413;SDS011;4746;35.664;139.738;2023-06-14T12:39:09;3.80;;;3.50;;
9413;SDS011;4746;35.664;139.738;2023-06-14T12:41:39;4.15;;;3.75;;
9413;SDS011;4746;35.664;139.738;2023-06-14T12:44:10;3.35;;;3.05;;
9413;SDS011;4746;35.664;139.738;2023-06-14T12:46:44;3.72;;;3.42;;
9413;SDS011;4746;35.664;139.738;2023-06-14T12:49:12;3.80;;;3.50;;
9413;SDS011;4746;35.664;139.738;2023-06-14T12:51:40;3.10;;;2.90;;
9413;SDS011;4746;35.664;139.738;2023-06-14T12:54:08;3.67;;;3.38;;
9413;SDS011;4746;35.664;139.738;2023-06-14T12:56:36;3.83;;;3.00;;
9413;SDS011;4746;35.664;139.738;2023-06-14T12:59:03;4.80;;;3.10;;
9413;SDS011;4746;35.664;139.738;2023-06-14T13:01:31;3.00;;;2.80;;
9413;SDS011;4746;35.664;139.738;2023-06-14T13:03:58;2.83;;;2.05;;
9413;SDS011;4746;35.664;139.738;2023-06-14T13:06:26;3.75;;;2.25;;
9413;SDS011;4746;35.664;139.738;2023-06-14T13:08:55;2.80;;;2.60;;
9413;SDS011;4746;35.664;139.738;2023-06-14T13:11:24;2.65;;;2.45;;
9413;SDS011;4746;35.664;139.738;2023-06-14T13:13:52;3.08;;;2.67;;
9413;SDS011;4746;35.664;139.738;2023-06-14T13:16:20;2.65;;;2.45;;
9413;SDS011;4746;35.664;139.738;2023-06-14T13:18:47;2.55;;;2.35;;
9413;SDS011;4746;35.664;139.738;2023-06-14T13:21:15;2.83;;;2.63;;
9413;SDS011;4746;35.664;139.738;2023-06-14T13:23:42;2.17;;;2.08;;
9413;SDS011;4746;35.664;139.738;2023-06-14T13:26:10;2.83;;;2.60;;
9413;SDS011;4746;35.664;139.738;2023-06-14T13:28:37;2.78;;;2.25;;
9413;SDS011;4746;35.664;139.738;2023-06-14T13:31:12;2.60;;;2.40;;
9413;SDS011;4746;35.664;139.738;2023-06-14T13:33:39;3.25;;;2.95;;
9413;SDS011;4746;35.664;139.738;2023-06-14T13:36:08;3.33;;;3.13;;
9413;SDS011;4746;35.664;139.738;2023-06-14T13:38:36;4.50;;;3.53;;
9413;SDS011;4746;35.664;139.738;2023-06-14T13:41:03;4.75;;;4.35;;
9413;SDS011;4746;35.664;139.738;2023-06-14T13:43:31;4.35;;;4.05;;
9413;SDS011;4746;35.664;139.738;2023-06-14T13:45:59;4.28;;;3.88;;
9413;SDS011;4746;35.664;139.738;2023-06-14T13:48:26;3.45;;;3.15;;
9413;SDS011;4746;35.664;139.738;2023-06-14T13:50:54;3.40;;;3.10;;
9413;SDS011;4746;35.664;139.738;2023-06-14T13:53:22;3.10;;;2.90;;
9413;SDS011;4746;35.664;139.738;2023-06-14T13:55:50;2.60;;;2.40;;
9413;SDS011;4746;35.664;139.738;2023-06-14T13:58:18;3.42;;;2.33;;
9413;SDS011;4746;35.664;139.738;2023-06-14T14:00:46;2.70;;;2.50;;
9413;SDS011;4746;35.664;139.738;2023-06-14T14:03:13;2.50;;;2.30;;
9413;SDS011;4746;35.664;139.738;2023-06-14T14:05:41;2.72;;;2.47;;
9413;SDS011;4746;35.664;139.738;2023-06-14T14:08:08;2.83;;;2.63;;
9413;SDS011;4746;35.664;139.738;2023-06-14T14:10:36;2.97;;;2.67;;
9413;SDS011;4746;35.664;139.738;2023-06-14T14:13:04;5.65;;;2.88;;
9413;SDS011;4746;35.664;139.738;2023-06-14T14:15:31;2.55;;;2.30;;
9413;SDS011;4746;35.664;139.738;2023-06-14T14:18:00;2.55;;;2.00;;
9413;SDS011;4746;35.664;139.738;2023-06-14T14:20:29;2.72;;;2.53;;
9413;SDS011;4746;35.664;139.738;2023-06-14T14:22:57;3.13;;;2.80;;
9413;SDS011;4746;35.664;139.738;2023-06-14T14:25:29;3.47;;;3.10;;
9413;SDS011;4746;35.664;139.738;2023-06-14T14:27:57;3.45;;;3.15;;
9413;SDS011;4746;35.664;139.738;2023-06-14T14:30:24;3.60;;;3.33;;
9413;SDS011;4746;35.664;139.738;2023-06-14T14:32:52;3.85;;;3.55;;
9413;SDS011;4746;35.664;139.738;2023-06-14T14:35:20;4.22;;;3.92;;
9413;SDS011;4746;35.664;139.738;2023-06-14T14:37:49;4.60;;;4.20;;
9413;SDS011;4746;35.664;139.738;2023-06-14T14:40:17;4.50;;;4.07;;
9413;SDS011;4746;35.664;139.738;2023-06-14T14:42:44;5.22;;;4.70;;
9413;SDS011;4746;35.664;139.738;2023-06-14T14:45:12;4.65;;;4.25;;
9413;SDS011;4746;35.664;139.738;2023-06-14T14:47:40;5.80;;;4.65;;
9413;SDS011;4746;35.664;139.738;2023-06-14T14:50:08;6.82;;;4.82;;
9413;SDS011;4746;35.664;139.738;2023-06-14T14:52:37;6.93;;;5.82;;
9413;SDS011;4746;35.664;139.738;2023-06-14T14:55:06;6.43;;;5.85;;
9413;SDS011;4746;35.664;139.738;2023-06-14T14:57:35;6.60;;;6.10;;
9413;SDS011;4746;35.664;139.738;2023-06-14T15:00:05;7.63;;;7.03;;
9413;SDS011;4746;35.664;139.738;2023-06-14T15:02:34;8.23;;;7.43;;
9413;SDS011;4746;35.664;139.738;2023-06-14T15:05:03;9.60;;;8.80;;
9413;SDS011;4746;35.664;139.738;2023-06-14T15:07:31;12.27;;;11.27;;
9413;SDS011;4746;35.664;139.738;2023-06-14T15:10:02;14.00;;;12.60;;
9413;SDS011;4746;35.664;139.738;2023-06-14T15:12:31;15.00;;;13.68;;